createdAt,value
2023-12-09T00:00:38.757Z,13.10
2023-12-09T00:01:38.741Z,13.10
2023-12-09T00:02:38.688Z,13.30
2023-12-09T00:03:38.802Z,13.00
2023-12-09T00:04:38.742Z,13.10
2023-12-09T00:05:38.674Z,13.20
2023-12-09T00:06:38.900Z,13.40
2023-12-09T00:07:38.637Z,13.10
2023-12-09T00:08:38.630Z,12.90
2023-12-09T00:09:38.650Z,13.20
2023-12-09T00:10:38.638Z,13.00
2023-12-09T00:11:38.602Z,13.10
2023-12-09T00:12:38.657Z,13.00
2023-12-09T00:13:38.573Z,13.10
2023-12-09T00:14:38.566Z,13.20
2023-12-09T00:15:38.664Z,13.10
2023-12-09T00:16:38.543Z,13.10
2023-12-09T00:17:38.533Z,13.00
2023-12-09T00:18:38.753Z,13.20
2023-12-09T00:19:38.563Z,13.30
2023-12-09T00:20:38.516Z,13.30
2023-12-09T00:21:38.486Z,12.90
2023-12-09T00:22:38.477Z,13.10
2023-12-09T00:23:47.209Z,13.00
2023-12-09T00:24:39.553Z,13.50
2023-12-09T00:25:38.459Z,13.10
2023-12-09T00:26:38.458Z,12.90
2023-12-09T00:27:38.432Z,13.10
2023-12-09T00:28:38.417Z,13.00
2023-12-09T00:29:38.409Z,13.20
2023-12-09T00:30:38.508Z,13.00
2023-12-09T00:31:38.378Z,12.80
2023-12-09T00:32:38.425Z,12.90
2023-12-09T00:33:38.527Z,13.00
2023-12-09T00:34:38.384Z,13.20
2023-12-09T00:35:38.338Z,13.00
2023-12-09T00:36:38.391Z,13.10
2023-12-09T00:37:38.314Z,13.10
2023-12-09T00:38:38.313Z,13.30
2023-12-09T00:39:38.308Z,13.30
2023-12-09T00:40:38.294Z,12.90
2023-12-09T00:41:38.277Z,13.10
2023-12-09T00:42:38.317Z,13.10
2023-12-09T00:43:38.268Z,13.10
2023-12-09T00:44:38.253Z,13.10
2023-12-09T00:45:38.265Z,13.00
2023-12-09T00:46:38.219Z,13.00
2023-12-09T00:47:38.238Z,13.10
2023-12-09T00:48:38.354Z,13.30
2023-12-09T00:49:38.243Z,13.30
2023-12-09T00:50:38.181Z,13.20
2023-12-09T00:51:38.189Z,13.10
2023-12-09T00:52:38.165Z,13.20
2023-12-09T00:53:38.157Z,13.20
2023-12-09T00:54:38.137Z,14.00
2023-12-09T00:55:38.127Z,13.10
2023-12-09T00:56:38.111Z,13.20
2023-12-09T00:57:38.143Z,13.20
2023-12-09T00:58:38.133Z,13.10
2023-12-09T00:59:38.088Z,12.90
2023-12-09T01:00:38.187Z,13.00
2023-12-09T01:01:38.067Z,13.00
2023-12-09T01:02:38.099Z,13.10
2023-12-09T01:03:38.192Z,13.10
2023-12-09T01:04:38.083Z,13.10
2023-12-09T01:05:38.017Z,13.10
2023-12-09T01:06:38.005Z,13.10
2023-12-09T01:07:38.020Z,13.50
2023-12-09T01:08:37.988Z,13.50
2023-12-09T01:09:38.004Z,13.10
2023-12-09T01:10:37.963Z,13.10
2023-12-09T01:11:37.972Z,13.30
2023-12-09T01:12:38.000Z,13.30
2023-12-09T01:13:37.930Z,13.20
2023-12-09T01:14:37.945Z,13.10
2023-12-09T01:15:37.948Z,13.10
2023-12-09T01:16:37.930Z,13.20
2023-12-09T01:17:37.922Z,12.90
2023-12-09T01:18:37.972Z,13.00
2023-12-09T01:19:37.879Z,13.20
2023-12-09T01:20:37.856Z,13.20
2023-12-09T01:21:37.933Z,13.20
2023-12-09T01:22:37.840Z,15.00
2023-12-09T01:23:37.826Z,13.30
2023-12-09T01:24:37.817Z,13.20
2023-12-09T01:25:37.828Z,13.30
2023-12-09T01:26:37.828Z,13.30
2023-12-09T01:27:37.791Z,13.20
2023-12-09T01:28:37.795Z,13.10
2023-12-09T01:29:37.761Z,13.20
2023-12-09T01:30:37.894Z,13.10
2023-12-09T01:31:37.739Z,13.10
2023-12-09T01:32:37.792Z,13.20
2023-12-09T01:33:37.922Z,13.20
2023-12-09T01:34:37.909Z,13.30
2023-12-09T01:35:37.718Z,13.20
2023-12-09T01:36:37.692Z,13.10
2023-12-09T01:37:37.676Z,14.40
2023-12-09T01:38:37.668Z,13.60
2023-12-09T01:39:37.676Z,13.10
2023-12-09T01:40:37.676Z,13.20
2023-12-09T01:41:37.641Z,13.30
2023-12-09T01:42:37.671Z,13.10
2023-12-09T01:43:37.615Z,13.10
2023-12-09T01:44:37.623Z,13.00
2023-12-09T01:45:37.669Z,13.20
2023-12-09T01:46:37.609Z,13.10
2023-12-09T01:47:37.581Z,13.20
2023-12-09T01:48:37.781Z,13.40
2023-12-09T01:49:37.740Z,13.60
2023-12-09T01:50:37.636Z,13.70
2023-12-09T01:51:37.540Z,13.40
2023-12-09T01:52:37.541Z,14.40
2023-12-09T01:53:37.555Z,13.70
2023-12-09T01:54:37.527Z,13.30
2023-12-09T01:55:37.504Z,13.50
2023-12-09T01:56:37.485Z,13.40
2023-12-09T01:57:37.473Z,13.40
2023-12-09T01:58:37.480Z,13.30
2023-12-09T01:59:37.467Z,13.40
2023-12-09T02:00:37.560Z,13.00
2023-12-09T02:01:37.448Z,13.00
2023-12-09T02:02:37.462Z,13.20
2023-12-09T02:03:37.496Z,13.00
2023-12-09T02:04:37.452Z,13.20
2023-12-09T02:05:37.390Z,13.20
2023-12-09T02:06:37.374Z,13.10
2023-12-09T02:07:37.377Z,13.40
2023-12-09T02:08:37.376Z,13.20
2023-12-09T02:09:37.348Z,13.10
2023-12-09T02:10:37.327Z,13.30
2023-12-09T02:11:37.341Z,13.10
2023-12-09T02:12:37.478Z,13.40
2023-12-09T02:13:37.311Z,13.20
2023-12-09T02:14:37.286Z,13.20
2023-12-09T02:15:37.286Z,13.10
2023-12-09T02:16:37.263Z,13.00
2023-12-09T02:17:37.302Z,13.30
2023-12-09T02:18:37.401Z,13.20
2023-12-09T02:19:37.284Z,13.60
2023-12-09T02:20:37.223Z,13.50
2023-12-09T02:21:37.214Z,13.20
2023-12-09T02:22:37.210Z,13.30
2023-12-09T02:23:37.201Z,13.30
2023-12-09T02:24:37.179Z,13.70
2023-12-09T02:25:37.177Z,13.20
2023-12-09T02:26:37.194Z,13.40
2023-12-09T02:27:37.171Z,13.50
2023-12-09T02:28:37.153Z,13.30
2023-12-09T02:29:37.129Z,13.20
2023-12-09T02:30:37.198Z,13.20
2023-12-09T02:31:37.145Z,13.20
2023-12-09T02:32:37.118Z,13.10
2023-12-09T02:33:37.308Z,13.20
2023-12-09T02:34:37.157Z,13.40
2023-12-09T02:35:37.087Z,13.60
2023-12-09T02:36:37.122Z,13.30
2023-12-09T02:37:37.040Z,13.60
2023-12-09T02:38:37.034Z,13.30
2023-12-09T02:39:37.024Z,13.10
2023-12-09T02:40:37.009Z,13.20
2023-12-09T02:41:37.013Z,13.20
2023-12-09T02:42:37.017Z,13.10
2023-12-09T02:43:36.982Z,13.20
2023-12-09T02:44:36.969Z,13.20
2023-12-09T02:45:37.017Z,13.20
2023-12-09T02:46:36.965Z,13.20
2023-12-09T02:47:37.030Z,13.00
2023-12-09T02:48:37.026Z,13.10
2023-12-09T02:49:36.977Z,13.40
2023-12-09T02:50:36.941Z,13.80
2023-12-09T02:51:36.927Z,13.40
2023-12-09T02:52:36.881Z,13.10
2023-12-09T02:53:36.897Z,13.20
2023-12-09T02:54:36.876Z,13.10
2023-12-09T02:55:36.869Z,13.20
2023-12-09T02:56:36.837Z,13.20
2023-12-09T02:57:36.916Z,13.20
2023-12-09T02:58:36.816Z,13.20
2023-12-09T02:59:36.846Z,13.50
2023-12-09T03:00:36.892Z,13.20
2023-12-09T03:01:36.787Z,13.30
2023-12-09T03:02:36.793Z,13.10
2023-12-09T03:03:36.823Z,13.10
2023-12-09T03:04:36.790Z,13.20
2023-12-09T03:05:36.758Z,13.40
2023-12-09T03:06:36.773Z,13.30
2023-12-09T03:07:36.725Z,14.90
2023-12-09T03:08:36.720Z,14.20
2023-12-09T03:09:36.762Z,13.30
2023-12-09T03:10:36.701Z,13.50
2023-12-09T03:11:36.682Z,13.40
2023-12-09T03:12:36.747Z,13.20
2023-12-09T03:13:36.679Z,13.40
2023-12-09T03:14:36.665Z,13.20
2023-12-09T03:15:36.829Z,13.10
2023-12-09T03:16:36.627Z,13.00
2023-12-09T03:17:36.778Z,13.00
2023-12-09T03:18:36.723Z,13.20
2023-12-09T03:19:36.707Z,13.30
2023-12-09T03:20:36.578Z,13.30
2023-12-09T03:21:36.569Z,13.40
2023-12-09T03:22:36.578Z,13.80
2023-12-09T03:23:36.569Z,13.30
2023-12-09T03:24:36.577Z,13.50
2023-12-09T03:25:36.537Z,13.30
2023-12-09T03:26:36.521Z,13.10
2023-12-09T03:27:36.571Z,13.40
2023-12-09T03:28:36.519Z,13.30
2023-12-09T03:29:36.488Z,13.30
2023-12-09T03:30:36.555Z,13.10
2023-12-09T03:31:36.472Z,13.00
2023-12-09T03:32:36.503Z,13.10
2023-12-09T03:33:36.613Z,13.30
2023-12-09T03:34:36.504Z,13.40
2023-12-09T03:35:36.441Z,13.40
2023-12-09T03:36:36.439Z,13.20
2023-12-09T03:37:36.423Z,13.80
2023-12-09T03:38:36.412Z,13.30
2023-12-09T03:39:36.436Z,13.20
2023-12-09T03:40:36.368Z,13.30
2023-12-09T03:41:36.373Z,13.30
2023-12-09T03:42:36.453Z,13.40
2023-12-09T03:43:36.378Z,13.30
2023-12-09T03:44:36.329Z,13.20
2023-12-09T03:45:36.345Z,13.20
2023-12-09T03:46:36.318Z,13.30
2023-12-09T03:47:36.331Z,13.40
2023-12-09T03:48:36.452Z,13.40
2023-12-09T03:49:36.520Z,13.50
2023-12-09T03:50:36.269Z,13.20
2023-12-09T03:51:36.330Z,13.20
2023-12-09T03:52:36.242Z,13.50
2023-12-09T03:53:36.233Z,13.50
2023-12-09T03:54:36.266Z,13.30
2023-12-09T03:55:36.227Z,13.10
2023-12-09T03:56:36.213Z,13.20
2023-12-09T03:57:36.226Z,13.30
2023-12-09T03:58:36.181Z,13.30
2023-12-09T03:59:36.180Z,13.30
2023-12-09T04:00:36.239Z,13.20
2023-12-09T04:01:36.168Z,13.00
2023-12-09T04:02:36.150Z,13.00
2023-12-09T04:03:36.177Z,13.20
2023-12-09T04:04:36.127Z,13.00
2023-12-09T04:05:36.165Z,13.20
2023-12-09T04:06:36.136Z,13.30
2023-12-09T04:07:36.089Z,13.30
2023-12-09T04:08:36.118Z,12.90
2023-12-09T04:09:36.186Z,13.10
2023-12-09T04:10:36.088Z,13.10
2023-12-09T04:11:36.039Z,13.10
2023-12-09T04:12:36.107Z,13.00
2023-12-09T04:13:36.031Z,13.00
2023-12-09T04:14:36.034Z,13.10
2023-12-09T04:15:36.022Z,13.20
2023-12-09T04:16:36.005Z,13.00
2023-12-09T04:17:36.020Z,13.00
2023-12-09T04:18:36.115Z,13.20
2023-12-09T04:19:36.169Z,13.20
2023-12-09T04:20:35.999Z,13.10
2023-12-09T04:21:35.964Z,13.10
2023-12-09T04:22:35.922Z,13.50
2023-12-09T04:23:35.927Z,13.10
2023-12-09T04:24:35.966Z,13.20
2023-12-09T04:25:35.893Z,13.00
2023-12-09T04:26:35.910Z,13.20
2023-12-09T04:27:35.927Z,13.10
2023-12-09T04:28:35.883Z,13.00
2023-12-09T04:29:35.863Z,13.20
2023-12-09T04:30:35.864Z,12.90
2023-12-09T04:31:35.845Z,12.90
2023-12-09T04:32:35.858Z,12.90
2023-12-09T04:33:35.896Z,12.90
2023-12-09T04:34:35.814Z,13.30
2023-12-09T04:35:35.810Z,13.40
2023-12-09T04:36:35.822Z,13.00
2023-12-09T04:37:35.786Z,12.90
2023-12-09T04:38:35.768Z,13.60
2023-12-09T04:39:35.796Z,12.90
2023-12-09T04:40:35.741Z,12.90
2023-12-09T04:41:35.724Z,13.00
2023-12-09T04:42:35.779Z,13.20
2023-12-09T04:43:35.705Z,13.10
2023-12-09T04:44:35.733Z,13.00
2023-12-09T04:45:35.702Z,13.00
2023-12-09T04:46:35.670Z,12.90
2023-12-09T04:47:35.782Z,13.30
2023-12-09T04:48:35.754Z,12.90
2023-12-09T04:49:35.777Z,13.20
2023-12-09T04:50:35.628Z,13.10
2023-12-09T04:51:35.736Z,13.00
2023-12-09T04:52:35.620Z,13.00
2023-12-09T04:53:37.188Z,13.00
2023-12-09T04:54:35.597Z,13.70
2023-12-09T04:55:35.585Z,12.90
2023-12-09T04:56:35.585Z,12.90
2023-12-09T04:57:35.634Z,13.20
2023-12-09T04:58:35.569Z,13.00
2023-12-09T04:59:35.540Z,13.40
2023-12-09T05:00:35.546Z,13.20
2023-12-09T05:01:35.539Z,12.90
2023-12-09T05:02:35.502Z,13.00
2023-12-09T05:03:35.551Z,12.80
2023-12-09T05:04:35.516Z,13.50
2023-12-09T05:05:35.529Z,13.40
2023-12-09T05:06:35.506Z,12.90
2023-12-09T05:07:35.453Z,13.20
2023-12-09T05:08:35.451Z,12.90
2023-12-09T05:09:35.462Z,12.80
2023-12-09T05:10:35.437Z,12.70
2023-12-09T05:11:35.411Z,12.80
2023-12-09T05:12:35.446Z,13.00
2023-12-09T05:13:35.386Z,12.80
2023-12-09T05:14:35.401Z,13.00
2023-12-09T05:15:35.416Z,12.80
2023-12-09T05:16:35.362Z,12.70
2023-12-09T05:17:35.363Z,12.90
2023-12-09T05:18:35.430Z,12.70
2023-12-09T05:19:35.453Z,12.80
2023-12-09T05:20:35.330Z,12.80
2023-12-09T05:21:36.547Z,12.60
2023-12-09T05:22:35.302Z,12.90
2023-12-09T05:23:35.277Z,12.70
2023-12-09T05:24:35.337Z,13.00
2023-12-09T05:25:35.261Z,13.80
2023-12-09T05:26:35.246Z,12.50
2023-12-09T05:27:35.284Z,12.60
2023-12-09T05:28:35.231Z,12.70
2023-12-09T05:29:35.242Z,12.80
2023-12-09T05:30:35.252Z,12.50
2023-12-09T05:31:35.194Z,12.70
2023-12-09T05:32:35.197Z,12.90
2023-12-09T05:33:35.267Z,12.80
2023-12-09T05:34:35.313Z,12.40
2023-12-09T05:35:35.155Z,12.70
2023-12-09T05:36:35.191Z,12.60
2023-12-09T05:37:35.161Z,12.60
2023-12-09T05:38:35.137Z,12.30
2023-12-09T05:39:35.127Z,12.50
2023-12-09T05:40:36.040Z,12.40
2023-12-09T05:41:35.088Z,12.50
2023-12-09T05:42:35.135Z,12.50
2023-12-09T05:43:35.082Z,12.70
2023-12-09T05:44:35.054Z,12.40
2023-12-09T05:45:35.116Z,12.80
2023-12-09T05:46:35.050Z,12.50
2023-12-09T05:47:35.124Z,12.40
2023-12-09T05:48:35.228Z,12.30
2023-12-09T05:49:35.172Z,12.50
2023-12-09T05:50:34.996Z,12.40
2023-12-09T05:51:35.013Z,12.60
2023-12-09T05:52:35.038Z,12.70
2023-12-09T05:53:34.964Z,12.40
2023-12-09T05:54:35.117Z,12.60
2023-12-09T05:55:34.939Z,13.10
2023-12-09T05:56:34.928Z,12.40
2023-12-09T05:57:34.972Z,13.00
2023-12-09T05:58:34.915Z,12.70
2023-12-09T05:59:34.907Z,12.60
2023-12-09T06:00:36.913Z,12.60
2023-12-09T06:01:34.929Z,12.50
2023-12-09T06:02:34.897Z,12.60
2023-12-09T06:03:35.041Z,12.50
2023-12-09T06:04:34.872Z,12.80
2023-12-09T06:05:34.869Z,12.80
2023-12-09T06:06:34.888Z,12.50
2023-12-09T06:07:34.807Z,12.70
2023-12-09T06:08:34.825Z,12.50
2023-12-09T06:09:34.879Z,12.50
2023-12-09T06:10:34.780Z,12.20
2023-12-09T06:11:34.787Z,12.20
2023-12-09T06:12:34.798Z,12.40
2023-12-09T06:13:34.748Z,12.90
2023-12-09T06:14:34.741Z,12.50
2023-12-09T06:15:34.833Z,12.30
2023-12-09T06:16:34.729Z,12.40
2023-12-09T06:17:34.753Z,12.70
2023-12-09T06:18:34.760Z,12.30
2023-12-09T06:19:34.707Z,12.50
2023-12-09T06:20:34.713Z,12.50
2023-12-09T06:21:34.740Z,12.30
2023-12-09T06:22:34.662Z,12.30
2023-12-09T06:23:34.638Z,12.60
2023-12-09T06:24:34.695Z,12.70
2023-12-09T06:25:34.647Z,12.30
2023-12-09T06:26:34.612Z,12.30
2023-12-09T06:27:34.654Z,12.70
2023-12-09T06:28:34.591Z,12.40
2023-12-09T06:29:34.575Z,12.60
2023-12-09T06:30:34.947Z,12.40
2023-12-09T06:31:34.561Z,12.60
2023-12-09T06:32:34.557Z,12.60
2023-12-09T06:33:34.657Z,12.90
2023-12-09T06:34:34.735Z,12.50
2023-12-09T06:35:34.524Z,12.50
2023-12-09T06:36:34.543Z,12.30
2023-12-09T06:37:34.530Z,12.50
2023-12-09T06:38:34.480Z,12.40
2023-12-09T06:39:34.552Z,12.40
2023-12-09T06:40:34.469Z,12.30
2023-12-09T06:41:34.464Z,12.50
2023-12-09T06:42:34.506Z,12.50
2023-12-09T06:43:34.428Z,12.40
2023-12-09T06:44:34.520Z,12.40
2023-12-09T06:45:34.484Z,12.50
2023-12-09T06:46:34.397Z,12.30
2023-12-09T06:47:34.448Z,12.60
2023-12-09T06:48:34.590Z,12.40
2023-12-09T06:49:34.470Z,12.50
2023-12-09T06:50:34.392Z,12.20
2023-12-09T06:51:34.529Z,12.50
2023-12-09T06:52:34.333Z,12.30
2023-12-09T06:53:34.360Z,12.40
2023-12-09T06:54:34.386Z,12.90
2023-12-09T06:55:34.294Z,12.80
2023-12-09T06:56:34.293Z,12.40
2023-12-09T06:57:34.317Z,12.80
2023-12-09T06:58:34.305Z,12.50
2023-12-09T06:59:34.258Z,12.50
2023-12-09T07:00:34.438Z,12.50
2023-12-09T07:01:34.303Z,12.50
2023-12-09T07:02:44.490Z,12.70
2023-12-09T07:03:35.291Z,12.50
2023-12-09T07:04:34.306Z,12.40
2023-12-09T07:05:34.232Z,12.60
2023-12-09T07:06:34.253Z,12.50
2023-12-09T07:07:34.197Z,12.40
2023-12-09T07:08:34.168Z,12.30
2023-12-09T07:09:34.256Z,12.20
2023-12-09T07:10:34.145Z,12.40
2023-12-09T07:11:34.134Z,12.20
2023-12-09T07:12:34.158Z,12.70
2023-12-09T07:13:34.113Z,12.50
2023-12-09T07:14:34.101Z,12.60
2023-12-09T07:15:34.116Z,12.70
2023-12-09T07:16:34.089Z,12.30
2023-12-09T07:17:34.262Z,12.50
2023-12-09T07:18:34.133Z,12.40
2023-12-09T07:19:34.139Z,12.30
2023-12-09T07:20:34.039Z,12.40
2023-12-09T07:21:34.111Z,12.40
2023-12-09T07:22:34.047Z,12.70
2023-12-09T07:23:34.007Z,12.00
2023-12-09T07:24:34.028Z,12.80
2023-12-09T07:25:33.998Z,14.30
2023-12-09T07:26:33.996Z,12.30
2023-12-09T07:27:34.073Z,12.20
2023-12-09T07:28:33.989Z,12.60
2023-12-09T07:29:33.943Z,12.50
2023-12-09T07:30:34.050Z,12.40
2023-12-09T07:31:33.943Z,12.50
2023-12-09T07:32:34.107Z,12.30
2023-12-09T07:33:34.228Z,12.20
2023-12-09T07:34:34.026Z,12.70
2023-12-09T07:35:33.900Z,12.90
2023-12-09T07:36:33.955Z,12.20
2023-12-09T07:37:33.862Z,12.50
2023-12-09T07:38:33.889Z,12.40
2023-12-09T07:39:33.917Z,12.20
2023-12-09T07:40:33.909Z,12.20
2023-12-09T07:41:33.841Z,12.10
2023-12-09T07:42:33.842Z,12.40
2023-12-09T07:43:33.787Z,12.40
2023-12-09T07:44:33.822Z,12.20
2023-12-09T07:45:33.839Z,12.30
2023-12-09T07:46:33.801Z,12.40
2023-12-09T07:47:33.773Z,12.00
2023-12-09T07:48:33.934Z,12.70
2023-12-09T07:49:33.912Z,12.20
2023-12-09T07:50:33.718Z,12.20
2023-12-09T07:51:33.752Z,12.10
2023-12-09T07:52:33.710Z,12.10
2023-12-09T07:53:33.684Z,12.60
2023-12-09T07:54:33.776Z,12.50
2023-12-09T07:55:33.696Z,12.00
2023-12-09T07:56:33.658Z,12.10
2023-12-09T07:57:33.668Z,12.20
2023-12-09T07:58:33.637Z,12.20
2023-12-09T07:59:33.660Z,12.30
2023-12-09T08:00:33.686Z,12.30
2023-12-09T08:01:33.679Z,11.70
2023-12-09T08:02:33.591Z,11.30
2023-12-09T08:03:33.666Z,11.40
2023-12-09T08:04:33.632Z,12.10
2023-12-09T08:05:33.595Z,12.30
2023-12-09T08:06:33.594Z,11.70
2023-12-09T08:07:33.533Z,11.50
2023-12-09T08:08:33.564Z,11.60
2023-12-09T08:09:33.538Z,12.20
2023-12-09T08:10:33.524Z,12.20
2023-12-09T08:11:33.491Z,12.10
2023-12-09T08:12:33.523Z,12.70
2023-12-09T08:13:33.490Z,12.60
2023-12-09T08:14:33.458Z,12.10
2023-12-09T08:15:33.488Z,12.30
2023-12-09T08:16:33.438Z,11.70
2023-12-09T08:17:33.449Z,12.10
2023-12-09T08:18:33.535Z,12.40
2023-12-09T08:19:33.578Z,12.20
2023-12-09T08:20:33.406Z,12.20
2023-12-09T08:21:33.422Z,12.00
2023-12-09T08:22:33.401Z,12.50
2023-12-09T08:23:33.370Z,12.20
2023-12-09T08:24:33.426Z,12.20
2023-12-09T08:25:33.336Z,12.70
2023-12-09T08:26:33.364Z,12.10
2023-12-09T08:27:33.387Z,12.00
2023-12-09T08:28:33.311Z,12.30
2023-12-09T08:29:33.296Z,12.30
2023-12-09T08:30:33.355Z,12.40
2023-12-09T08:31:33.311Z,12.30
2023-12-09T08:32:33.313Z,12.60
2023-12-09T08:33:33.351Z,13.00
2023-12-09T08:34:33.374Z,12.50
2023-12-09T08:35:33.251Z,12.60
2023-12-09T08:36:33.294Z,12.60
2023-12-09T08:37:33.214Z,12.40
2023-12-09T08:38:33.201Z,12.40
2023-12-09T08:39:33.215Z,12.20
2023-12-09T08:40:33.179Z,12.70
2023-12-09T08:41:33.185Z,12.30
2023-12-09T08:42:33.269Z,12.40
2023-12-09T08:43:33.145Z,12.50
2023-12-09T08:44:33.138Z,12.30
2023-12-09T08:45:33.275Z,12.20
2023-12-09T08:46:33.145Z,12.40
2023-12-09T08:47:33.126Z,12.10
2023-12-09T08:48:33.396Z,12.80
2023-12-09T08:49:33.178Z,12.50
2023-12-09T08:50:33.100Z,12.10
2023-12-09T08:51:33.105Z,12.50
2023-12-09T08:52:33.066Z,12.10
2023-12-09T08:53:33.039Z,12.20
2023-12-09T08:54:33.054Z,12.50
2023-12-09T08:55:33.045Z,12.10
2023-12-09T08:56:33.067Z,12.50
2023-12-09T08:57:33.083Z,13.10
2023-12-09T08:58:33.009Z,12.40
2023-12-09T08:59:33.018Z,12.30
2023-12-09T09:00:33.063Z,12.50
2023-12-09T09:01:32.976Z,12.30
2023-12-09T09:02:32.951Z,12.60
2023-12-09T09:03:32.965Z,12.30
2023-12-09T09:04:32.993Z,12.30
2023-12-09T09:05:32.979Z,12.20
2023-12-09T09:06:32.944Z,12.70
2023-12-09T09:07:32.891Z,12.60
2023-12-09T09:08:32.891Z,12.30
2023-12-09T09:09:32.906Z,12.40
2023-12-09T09:10:32.860Z,12.50
2023-12-09T09:11:32.847Z,12.80
2023-12-09T09:12:32.971Z,12.20
2023-12-09T09:13:32.848Z,12.10
2023-12-09T09:14:32.872Z,12.40
2023-12-09T09:15:32.823Z,12.80
2023-12-09T09:16:32.803Z,12.30
2023-12-09T09:17:32.807Z,12.20
2023-12-09T09:18:32.884Z,12.70
2023-12-09T09:19:32.838Z,12.20
2023-12-09T09:20:32.758Z,12.50
2023-12-09T09:21:32.765Z,12.90
2023-12-09T09:22:32.750Z,12.70
2023-12-09T09:23:32.734Z,12.30
2023-12-09T09:24:32.774Z,12.40
2023-12-09T09:25:32.705Z,12.30
2023-12-09T09:26:32.690Z,12.50
2023-12-09T09:27:32.861Z,12.80
2023-12-09T09:28:32.700Z,12.40
2023-12-09T09:29:32.658Z,12.10
2023-12-09T09:30:32.691Z,12.40
2023-12-09T09:31:32.660Z,12.60
2023-12-09T09:32:32.940Z,12.00
2023-12-09T09:33:32.758Z,12.00
2023-12-09T09:34:32.683Z,12.30
2023-12-09T09:35:32.594Z,12.20
2023-12-09T09:36:32.608Z,13.10
2023-12-09T09:37:32.634Z,12.10
2023-12-09T09:38:32.565Z,12.00
2023-12-09T09:39:32.636Z,12.80
2023-12-09T09:40:32.544Z,12.40
2023-12-09T09:41:32.562Z,12.20
2023-12-09T09:42:32.897Z,12.70
2023-12-09T09:43:32.510Z,12.60
2023-12-09T09:44:32.511Z,12.30
2023-12-09T09:45:33.068Z,12.80
2023-12-09T09:46:32.534Z,12.60
2023-12-09T09:47:32.508Z,12.60
2023-12-09T09:48:32.502Z,12.10
2023-12-09T09:49:32.552Z,12.60
2023-12-09T09:50:32.443Z,12.90
2023-12-09T09:51:32.487Z,12.40
2023-12-09T09:52:32.421Z,12.10
2023-12-09T09:53:32.402Z,12.50
2023-12-09T09:54:32.499Z,12.10
2023-12-09T09:55:32.411Z,12.20
2023-12-09T09:56:32.395Z,12.60
2023-12-09T09:57:32.404Z,12.20
2023-12-09T09:58:32.356Z,12.40
2023-12-09T09:59:32.346Z,12.10
2023-12-09T10:00:32.445Z,12.40
2023-12-09T10:01:32.357Z,12.60
2023-12-09T10:02:32.374Z,12.30
2023-12-09T10:03:32.352Z,12.10
2023-12-09T10:04:32.348Z,12.70
2023-12-09T10:05:32.317Z,12.70
2023-12-09T10:06:32.373Z,12.30
2023-12-09T10:07:32.408Z,12.60
2023-12-09T10:08:32.253Z,12.20
2023-12-09T10:09:32.324Z,12.00
2023-12-09T10:10:32.253Z,12.90
2023-12-09T10:11:32.213Z,13.20
2023-12-09T10:12:32.271Z,12.40
2023-12-09T10:13:32.198Z,12.90
2023-12-09T10:14:32.225Z,12.60
2023-12-09T10:15:32.197Z,12.60
2023-12-09T10:16:32.164Z,12.50
2023-12-09T10:17:32.229Z,12.50
2023-12-09T10:18:32.268Z,12.40
2023-12-09T10:19:32.264Z,11.80
2023-12-09T10:20:32.137Z,12.40
2023-12-09T10:21:32.183Z,12.40
2023-12-09T10:22:32.098Z,12.10
2023-12-09T10:23:32.096Z,12.50
2023-12-09T10:24:32.158Z,12.20
2023-12-09T10:25:32.080Z,12.50
2023-12-09T10:26:32.057Z,12.80
2023-12-09T10:27:32.084Z,12.60
2023-12-09T10:28:32.061Z,12.50
2023-12-09T10:29:32.020Z,12.40
2023-12-09T10:30:32.035Z,12.30
2023-12-09T10:31:32.007Z,12.40
2023-12-09T10:32:32.389Z,12.70
2023-12-09T10:33:32.101Z,12.10
2023-12-09T10:34:32.073Z,12.40
2023-12-09T10:35:31.958Z,12.40
2023-12-09T10:36:32.027Z,12.70
2023-12-09T10:37:31.954Z,12.50
2023-12-09T10:38:31.965Z,12.10
2023-12-09T10:39:31.962Z,12.20
2023-12-09T10:40:31.906Z,12.30
2023-12-09T10:41:31.900Z,12.10
2023-12-09T10:42:32.279Z,12.00
2023-12-09T10:43:31.870Z,12.50
2023-12-09T10:44:31.863Z,12.30
2023-12-09T10:45:31.881Z,12.10
2023-12-09T10:46:31.836Z,12.90
2023-12-09T10:47:32.071Z,12.70
2023-12-09T10:48:31.976Z,12.60
2023-12-09T10:49:31.898Z,12.00
2023-12-09T10:50:31.817Z,12.90
2023-12-09T10:51:31.887Z,13.50
2023-12-09T10:52:31.803Z,12.10
2023-12-09T10:53:31.776Z,12.00
2023-12-09T10:54:31.827Z,11.80
2023-12-09T10:55:31.762Z,12.10
2023-12-09T10:56:31.748Z,12.10
2023-12-09T10:57:31.747Z,11.80
2023-12-09T10:58:31.709Z,12.10
2023-12-09T10:59:31.695Z,12.10
2023-12-09T11:00:31.749Z,12.00
2023-12-09T11:01:31.761Z,12.60
2023-12-09T11:02:31.671Z,12.40
2023-12-09T11:03:31.687Z,12.20
2023-12-09T11:04:31.787Z,12.00
2023-12-09T11:05:31.655Z,13.10
2023-12-09T11:06:31.686Z,12.40
2023-12-09T11:07:31.614Z,12.30
2023-12-09T11:08:31.619Z,12.20
2023-12-09T11:09:31.586Z,12.00
2023-12-09T11:10:31.592Z,12.80
2023-12-09T11:11:31.594Z,12.40
2023-12-09T11:12:31.830Z,12.70
2023-12-09T11:13:31.544Z,12.10
2023-12-09T11:14:31.532Z,12.40
2023-12-09T11:15:31.661Z,12.30
2023-12-09T11:16:31.522Z,12.30
2023-12-09T11:17:31.607Z,12.20
2023-12-09T11:18:31.646Z,12.20
2023-12-09T11:19:31.650Z,12.50
2023-12-09T11:20:31.567Z,12.00
2023-12-09T11:21:31.488Z,12.80
2023-12-09T11:22:31.470Z,12.90
2023-12-09T11:23:31.436Z,12.20
2023-12-09T11:24:31.649Z,12.40
2023-12-09T11:25:31.468Z,13.20
2023-12-09T11:26:31.415Z,11.80
2023-12-09T11:27:31.437Z,12.30
2023-12-09T11:28:31.381Z,12.50
2023-12-09T11:29:31.420Z,12.00
2023-12-09T11:30:31.460Z,12.30
2023-12-09T11:31:31.351Z,12.60
2023-12-09T11:32:31.352Z,13.30
2023-12-09T11:33:31.427Z,12.20
2023-12-09T11:34:31.401Z,12.40
2023-12-09T11:35:31.312Z,12.50
2023-12-09T11:36:31.352Z,12.30
2023-12-09T11:37:31.289Z,12.40
2023-12-09T11:38:31.327Z,12.50
2023-12-09T11:39:31.301Z,11.90
2023-12-09T11:40:31.268Z,12.40
2023-12-09T11:41:31.245Z,13.30
2023-12-09T11:42:31.369Z,12.60
2023-12-09T11:43:31.238Z,13.30
2023-12-09T11:44:31.224Z,12.50
2023-12-09T11:45:31.291Z,12.40
2023-12-09T11:46:31.188Z,12.70
2023-12-09T11:47:31.231Z,12.20
2023-12-09T11:48:31.306Z,12.30
2023-12-09T11:49:31.227Z,12.10
2023-12-09T11:50:31.159Z,12.30
2023-12-09T11:51:31.152Z,12.30
2023-12-09T11:52:31.166Z,12.30
2023-12-09T11:53:31.148Z,12.10
2023-12-09T11:54:31.174Z,12.20
2023-12-09T11:55:31.117Z,11.90
2023-12-09T11:56:31.084Z,12.10
2023-12-09T11:57:31.112Z,12.00
2023-12-09T11:58:31.064Z,12.10
2023-12-09T11:59:31.079Z,12.00
2023-12-09T12:00:31.141Z,11.60
2023-12-09T12:01:31.072Z,12.30
2023-12-09T12:02:31.087Z,12.90
2023-12-09T12:03:31.089Z,12.40
2023-12-09T12:04:31.008Z,11.50
2023-12-09T12:05:31.017Z,11.90
2023-12-09T12:06:31.011Z,12.10
2023-12-09T12:07:30.979Z,12.00
2023-12-09T12:08:30.952Z,12.00
2023-12-09T12:09:30.992Z,11.70
2023-12-09T12:10:30.963Z,13.10
2023-12-09T12:11:30.945Z,12.50
2023-12-09T12:12:31.174Z,12.10
2023-12-09T12:13:30.900Z,12.50
2023-12-09T12:14:30.891Z,12.40
2023-12-09T12:15:30.906Z,12.10
2023-12-09T12:16:30.900Z,12.10
2023-12-09T12:17:30.979Z,12.10
2023-12-09T12:18:30.971Z,11.90
2023-12-09T12:19:30.926Z,12.00
2023-12-09T12:20:30.840Z,12.00
2023-12-09T12:21:30.917Z,12.00
2023-12-09T12:22:30.812Z,12.00
2023-12-09T12:23:33.145Z,11.80
2023-12-09T12:24:30.796Z,11.90
2023-12-09T12:25:30.796Z,11.80
2023-12-09T12:26:30.782Z,12.30
2023-12-09T12:27:30.775Z,11.60
2023-12-09T12:28:30.768Z,11.80
2023-12-09T12:29:30.730Z,12.20
2023-12-09T12:30:30.758Z,11.90
2023-12-09T12:31:30.707Z,11.80
2023-12-09T12:32:30.974Z,12.20
2023-12-09T12:33:30.751Z,12.00
2023-12-09T12:34:30.783Z,12.10
2023-12-09T12:35:30.676Z,12.10
2023-12-09T12:36:30.699Z,11.90
2023-12-09T12:37:30.649Z,11.90
2023-12-09T12:38:30.626Z,11.90
2023-12-09T12:39:30.695Z,12.20
2023-12-09T12:40:30.613Z,12.10
2023-12-09T12:41:30.605Z,12.00
2023-12-09T12:42:31.126Z,12.00
2023-12-09T12:43:30.584Z,11.70
2023-12-09T12:44:30.582Z,11.70
2023-12-09T12:45:30.586Z,12.30
2023-12-09T12:46:30.544Z,11.70
2023-12-09T12:47:30.576Z,11.60
2023-12-09T12:48:30.692Z,11.50
2023-12-09T12:49:30.580Z,11.80
2023-12-09T12:50:30.514Z,11.90
2023-12-09T12:51:30.518Z,12.00
2023-12-09T12:52:30.699Z,12.50